Time;durP1;ratioP1;P1;durP2;ratioP2;P2;SDS_P1;SDS_P2;PMS_P1;PMS_P2;Temp;Humidity;BMP_temperature;BMP_pressure;BME280_temperature;BME280_humidity;BME280_pressure;Samples;Min_cycle;Max_cycle;Signal;HPM_P1;HPM_P2
2021/09/27 00:05:46;;;;;;;21.2;17.7;;;;;;;13.87;100;98898.62;;;;
2021/09/27 00:15:46;;;;;;;18.9;16.9;;;;;;;13.84;100;98891.14;;;;
2021/09/27 00:25:46;;;;;;;21.5;18.2;;;;;;;13.84;100;98893.84;;;;
2021/09/27 00:35:45;;;;;;;20.5;17.3;;;;;;;13.89;100;98890.95;;;;
2021/09/27 00:45:45;;;;;;;19.1;16.9;;;;;;;13.87;100;98895.91;;;;
2021/09/27 00:55:44;;;;;;;18.9;15.8;;;;;;;13.89;100;98899.08;;;;
2021/09/27 01:05:44;;;;;;;17.6;15.8;;;;;;;13.9;100;98897.17;;;;
2021/09/27 01:15:43;;;;;;;19.8;15.4;;;;;;;13.64;100;98894.48;;;;
2021/09/27 01:25:43;;;;;;;19.4;15.9;;;;;;;13.6;100;98885.42;;;;
2021/09/27 01:35:42;;;;;;;17.6;15.7;;;;;;;13.5;100;98877.63;;;;
2021/09/27 01:45:42;;;;;;;19.3;17.4;;;;;;;13.69;100;98877.28;;;;
2021/09/27 01:55:41;;;;;;;21.6;18.1;;;;;;;13.65;100;98857.36;;;;
2021/09/27 02:05:41;;;;;;;23.8;18.4;;;;;;;13.66;100;98857.05;;;;
2021/09/27 02:15:41;;;;;;;21.6;17.2;;;;;;;13.69;100;98856.41;;;;
2021/09/27 02:25:40;;;;;;;20;17.9;;;;;;;13.72;100;98866.59;;;;
2021/09/27 02:35:40;;;;;;;19.4;16.6;;;;;;;13.49;100;98873.32;;;;
2021/09/27 02:45:39;;;;;;;23.9;16.3;;;;;;;13.64;100;98861.98;;;;
2021/09/27 02:55:39;;;;;;;16.8;15.1;;;;;;;13.73;100;98861.98;;;;
2021/09/27 03:05:38;;;;;;;18.4;14.6;;;;;;;13.64;100;98861.98;;;;
2021/09/27 03:15:39;;;;;;;17.2;13.8;;;;;;;13.69;100;98864.53;;;;
2021/09/27 03:25:37;;;;;;;19.8;14.1;;;;;;;13.57;100;98870.59;;;;
2021/09/27 03:35:37;;;;;;;17;13.3;;;;;;;13.52;100;98856.43;;;;
2021/09/27 03:45:37;;;;;;;20.5;14.8;;;;;;;13.56;100;98833.81;;;;
2021/09/27 03:55:36;;;;;;;15.3;13.5;;;;;;;13.52;100;98832.06;;;;
2021/09/27 04:05:36;;;;;;;19.5;14.9;;;;;;;13.37;100;98829.83;;;;
2021/09/27 04:15:35;;;;;;;17.6;14.2;;;;;;;13.34;100;98844.81;;;;
2021/09/27 04:25:35;;;;;;;20.9;15.5;;;;;;;13.39;100;98831.13;;;;
2021/09/27 04:35:38;;;;;;;22.1;15;;;;;;;13.26;100;98842.12;;;;
2021/09/27 04:45:35;;;;;;;20.4;16.7;;;;;;;13.24;100;98853.25;;;;
2021/09/27 04:55:34;;;;;;;17.8;15;;;;;;;13.35;100;98862.66;;;;
2021/09/27 05:05:33;;;;;;;19.7;17.8;;;;;;;13.14;100;98863.59;;;;
2021/09/27 05:15:50;;;;;;;16.7;13.3;;;;;;;13.2;100;98854.2;;;;
2021/09/27 05:25:44;;;;;;;16.4;13.2;;;;;;;13.1;100;98856.11;;;;
2021/09/27 05:35:44;;;;;;;20.4;13.8;;;;;;;13.25;100;98859.47;;;;
2021/09/27 05:45:38;;;;;;;22.7;13.6;;;;;;;13.26;100;98863.77;;;;
2021/09/27 05:55:32;;;;;;;15.1;12.8;;;;;;;13.38;100;98864.72;;;;
2021/09/27 06:05:30;;;;;;;14.3;12.9;;;;;;;13.5;100;98869.5;;;;
2021/09/27 06:15:33;;;;;;;17.5;14.1;;;;;;;13.91;100;98882.52;;;;
2021/09/27 06:25:31;;;;;;;15.8;11.9;;;;;;;13.9;100;98880.91;;;;
2021/09/27 06:35:29;;;;;;;15.5;11.6;;;;;;;13.87;100;98874.23;;;;
2021/09/27 06:45:28;;;;;;;17.1;10.7;;;;;;;14.17;100;98866.97;;;;
2021/09/27 06:55:28;;;;;;;16.7;11.4;;;;;;;14.28;100;98878.27;;;;
2021/09/27 07:05:27;;;;;;;15.6;12.4;;;;;;;14.37;100;98866.29;;;;
2021/09/27 07:15:27;;;;;;;15.5;14;;;;;;;14.24;100;98861.84;;;;
2021/09/27 07:25:27;;;;;;;14.7;13.2;;;;;;;14.35;100;98867.74;;;;
2021/09/27 07:35:27;;;;;;;11.9;10.8;;;;;;;14.38;100;98865.17;;;;
2021/09/27 07:45:26;;;;;;;14.2;11.5;;;;;;;14.5;100;98861.79;;;;
2021/09/27 07:55:26;;;;;;;15.6;12.9;;;;;;;14.74;100;98856.56;;;;
2021/09/27 08:05:29;;;;;;;17.2;11.9;;;;;;;14.78;100;98865.64;;;;
2021/09/27 08:15:26;;;;;;;14.2;11.3;;;;;;;14.86;100;98863.97;;;;
2021/09/27 08:25:25;;;;;;;12.8;11.4;;;;;;;14.96;100;98869.81;;;;
2021/09/27 08:35:26;;;;;;;13.7;12.4;;;;;;;15.02;100;98868.52;;;;
2021/09/27 08:45:26;;;;;;;13.1;9.9;;;;;;;15.25;100;98879.05;;;;
2021/09/27 08:55:27;;;;;;;18;16.1;;;;;;;15.28;100;98870.23;;;;
2021/09/27 09:05:28;;;;;;;14.2;12.6;;;;;;;15.58;100;98877.23;;;;
2021/09/27 09:15:26;;;;;;;20.8;13.5;;;;;;;15.64;100;98884.05;;;;
2021/09/27 09:25:29;;;;;;;16.5;13.9;;;;;;;15.72;100;98877.75;;;;
2021/09/27 09:35:27;;;;;;;16.4;14.4;;;;;;;15.93;100;98872.27;;;;
2021/09/27 09:45:27;;;;;;;25.8;14.5;;;;;;;16.11;100;98862.78;;;;
2021/09/27 09:55:33;;;;;;;16.6;12.8;;;;;;;16.5;100;98858.64;;;;
2021/09/27 10:05:32;;;;;;;17.3;14.4;;;;;;;16.4;100;98854.45;;;;
2021/09/27 10:15:49;;;;;;;17.4;13.2;;;;;;;16.74;100;98845.06;;;;
2021/09/27 10:25:32;;;;;;;13.6;12.3;;;;;;;17.46;100;98840.59;;;;
2021/09/27 10:35:25;;;;;;;14.4;12.3;;;;;;;17.83;100;98849.45;;;;
2021/09/27 10:45:25;;;;;;;15;12.2;;;;;;;17.85;100;98836.25;;;;
2021/09/27 10:55:25;;;;;;;15.3;13.1;;;;;;;18.53;100;98828.69;;;;
2021/09/27 11:05:25;;;;;;;15.5;12.5;;;;;;;18.86;100;98818.13;;;;
2021/09/27 11:15:25;;;;;;;16.3;14;;;;;;;18.79;100;98826.16;;;;
2021/09/27 11:25:26;;;;;;;16.5;11;;;;;;;19.07;100;98813.14;;;;
2021/09/27 11:35:26;;;;;;;16.6;13.4;;;;;;;19.21;100;98803.66;;;;
2021/09/27 11:45:27;;;;;;;13.9;12.5;;;;;;;19.35;100;98790.28;;;;
2021/09/27 11:55:28;;;;;;;13.4;11.8;;;;;;;19.86;100;98785.42;;;;
2021/09/27 12:05:27;;;;;;;14.8;11.7;;;;;;;20.09;100;98778.83;;;;
2021/09/27 12:15:27;;;;;;;12.8;10.9;;;;;;;20.28;100;98766.23;;;;
2021/09/27 12:25:28;;;;;;;14.8;10.4;;;;;;;20.6;100;98759.3;;;;
2021/09/27 12:35:28;;;;;;;9.9;7.3;;;;;;;21.11;100;98751.41;;;;
2021/09/27 12:45:29;;;;;;;15.3;8;;;;;;;21.3;100;98751.25;;;;
2021/09/27 12:55:29;;;;;;;9.1;6.8;;;;;;;21.41;100;98751.38;;;;
2021/09/27 13:05:30;;;;;;;8.9;6.2;;;;;;;21.59;100;98744.91;;;;
2021/09/27 13:15:31;;;;;;;8.1;5.3;;;;;;;21.51;100;98736.99;;;;
2021/09/27 13:25:31;;;;;;;15.1;5.3;;;;;;;21.49;100;98726.38;;;;
2021/09/27 13:35:35;;;;;;;6.8;4.7;;;;;;;21.55;100;98716.64;;;;
2021/09/27 13:45:32;;;;;;;9.2;5.7;;;;;;;21.77;100;98695.69;;;;
2021/09/27 13:55:33;;;;;;;8.4;5;;;;;;;21.55;100;98702.17;;;;
2021/09/27 14:05:34;;;;;;;9.6;4.3;;;;;;;21.54;100;98711.55;;;;
2021/09/27 14:15:34;;;;;;;11.9;4.4;;;;;;;21.69;100;98715.23;;;;
2021/09/27 14:25:35;;;;;;;9.8;5.2;;;;;;;21.58;100;98715.91;;;;
2021/09/27 14:35:36;;;;;;;7;4.6;;;;;;;21.31;100;98721.89;;;;
2021/09/27 14:45:36;;;;;;;7.6;4.3;;;;;;;21.24;100;98705.36;;;;
2021/09/27 14:55:39;;;;;;;9.4;4.4;;;;;;;21.25;100;98712.4;;;;
2021/09/27 15:05:37;;;;;;;7.1;4.8;;;;;;;21.16;100;98714.66;;;;
2021/09/27 15:15:37;;;;;;;10.9;5.9;;;;;;;20.65;100;98704.22;;;;
2021/09/27 15:25:38;;;;;;;9;5.3;;;;;;;21.08;100;98714.55;;;;
2021/09/27 15:35:38;;;;;;;10.9;6;;;;;;;21.3;100;98717.56;;;;
2021/09/27 15:45:39;;;;;;;10.9;7.1;;;;;;;20.62;100;98721.37;;;;
2021/09/27 15:55:39;;;;;;;9.4;6.4;;;;;;;19.59;100;98716.98;;;;
2021/09/27 16:05:40;;;;;;;10.5;7.1;;;;;;;18.9;100;98722.63;;;;
2021/09/27 16:15:40;;;;;;;9.3;7.7;;;;;;;18.24;100;98719.95;;;;
2021/09/27 16:25:40;;;;;;;11.8;7.1;;;;;;;17.72;100;98734.66;;;;
2021/09/27 16:35:40;;;;;;;11.3;6.1;;;;;;;17.55;100;98743.14;;;;
2021/09/27 16:45:40;;;;;;;36.2;30;;;;;;;17.14;100;98757.98;;;;
2021/09/27 16:55:40;;;;;;;9.2;7.5;;;;;;;16.87;100;98748.63;;;;
2021/09/27 17:05:40;;;;;;;14.7;7.9;;;;;;;16.58;100;98743.5;;;;
2021/09/27 17:25:40;;;;;;;11.9;7.5;;;;;;;16.09;100;98746.22;;;;
2021/09/27 17:35:40;;;;;;;11.2;8.9;;;;;;;15.91;100;98733.97;;;;
2021/09/27 17:45:40;;;;;;;13.3;8.5;;;;;;;15.65;100;98744.36;;;;
2021/09/27 17:55:39;;;;;;;13;10;;;;;;;15.38;100;98747.63;;;;
2021/09/27 18:05:39;;;;;;;13.8;10;;;;;;;15.23;100;98754.49;;;;
2021/09/27 18:15:39;;;;;;;12.3;9.2;;;;;;;14.99;100;98752.44;;;;
2021/09/27 18:25:38;;;;;;;12.4;8.9;;;;;;;14.73;100;98760;;;;
2021/09/27 18:35:39;;;;;;;12.4;9.1;;;;;;;14.61;100;98762.66;;;;
2021/09/27 18:45:38;;;;;;;13.6;9.3;;;;;;;14.47;100;98776.43;;;;
2021/09/27 18:55:37;;;;;;;12.8;7.9;;;;;;;14.27;100;98762.8;;;;
2021/09/27 19:05:37;;;;;;;13.8;9.4;;;;;;;14.17;100;98771.3;;;;
2021/09/27 19:15:36;;;;;;;15.5;11.6;;;;;;;14.04;100;98783.96;;;;
2021/09/27 19:25:36;;;;;;;19.2;14.2;;;;;;;13.89;100;98779.06;;;;
2021/09/27 19:35:36;;;;;;;14.4;9.2;;;;;;;13.63;100;98789.99;;;;
2021/09/27 19:45:35;;;;;;;15;10.5;;;;;;;13.48;100;98790.48;;;;
2021/09/27 19:55:35;;;;;;;14.5;10.3;;;;;;;13.26;100;98788.75;;;;
2021/09/27 20:05:34;;;;;;;16.6;10.2;;;;;;;13.18;100;98797.7;;;;
2021/09/27 20:15:36;;;;;;;14.5;11.3;;;;;;;12.99;100;98794.46;;;;
2021/09/27 20:25:33;;;;;;;13.9;10.2;;;;;;;12.93;100;98793.84;;;;
2021/09/27 20:35:32;;;;;;;17.7;8;;;;;;;12.86;100;98790.8;;;;
2021/09/27 20:45:32;;;;;;;15.5;9;;;;;;;12.8;100;98797.48;;;;
2021/09/27 20:55:31;;;;;;;11.6;7.5;;;;;;;12.59;100;98813.52;;;;
2021/09/27 21:05:30;;;;;;;12.2;8.2;;;;;;;12.56;100;98824.17;;;;
2021/09/27 21:15:30;;;;;;;10.3;7.1;;;;;;;12.44;100;98834.77;;;;
2021/09/27 21:25:29;;;;;;;12.6;7.4;;;;;;;12.27;100;98832.01;;;;
2021/09/27 21:35:28;;;;;;;17.3;10.7;;;;;;;12.14;100;98822.91;;;;
2021/09/27 21:45:28;;;;;;;11.1;7.2;;;;;;;11.98;100;98827.11;;;;
2021/09/27 21:55:27;;;;;;;19;8.3;;;;;;;11.97;100;98830.94;;;;
2021/09/27 22:05:26;;;;;;;11.6;7.1;;;;;;;11.84;100;98835.3;;;;
2021/09/27 22:15:25;;;;;;;9;5.6;;;;;;;11.68;100;98839.47;;;;
2021/09/27 22:25:24;;;;;;;10.2;6.6;;;;;;;11.47;100;98849.97;;;;
2021/09/27 22:35:24;;;;;;;11.9;6.4;;;;;;;11.25;100;98847.23;;;;
2021/09/27 22:45:23;;;;;;;11;5;;;;;;;11.1;100;98851.11;;;;
2021/09/27 22:55:22;;;;;;;14;5.7;;;;;;;10.99;100;98843.53;;;;
2021/09/27 23:05:21;;;;;;;11;5.1;;;;;;;10.91;100;98855.83;;;;
2021/09/27 23:15:22;;;;;;;8.8;4.2;;;;;;;10.77;100;98859.64;;;;
2021/09/27 23:25:20;;;;;;;10.4;4.9;;;;;;;10.71;100;98856.27;;;;
2021/09/27 23:35:19;;;;;;;10.5;4.1;;;;;;;10.63;100;98867.75;;;;
2021/09/27 23:45:18;;;;;;;7.6;4.8;;;;;;;10.4;100;98855.28;;;;
2021/09/27 23:55:17;;;;;;;7.2;4.5;;;;;;;10.36;100;98862.36;;;;
